createdAt,value
2023-03-28T00:01:06.079Z,2.13
2023-03-28T00:03:36.363Z,1.83
2023-03-28T00:06:09.863Z,1.90
2023-03-28T00:08:39.442Z,1.63
2023-03-28T00:11:12.725Z,1.97
2023-03-28T00:13:39.590Z,1.57
2023-03-28T00:16:12.942Z,1.63
2023-03-28T00:18:41.584Z,1.70
2023-03-28T00:21:23.744Z,2.20
2023-03-28T00:23:55.336Z,2.17
2023-03-28T00:26:26.679Z,2.10
2023-03-28T00:29:01.553Z,1.97
2023-03-28T00:31:28.952Z,2.00
2023-03-28T00:33:59.033Z,2.20
2023-03-28T00:36:26.782Z,1.80
2023-03-28T00:38:53.990Z,1.97
2023-03-28T00:41:26.673Z,2.20
2023-03-28T00:43:54.667Z,1.87
2023-03-28T00:46:27.176Z,1.97
2023-03-28T00:49:01.157Z,2.03
2023-03-28T00:51:32.301Z,2.60
2023-03-28T00:54:02.240Z,1.70
2023-03-28T00:56:34.874Z,1.90
2023-03-28T00:59:11.392Z,2.00
2023-03-28T01:01:40.405Z,1.60
2023-03-28T01:04:10.415Z,1.90
2023-03-28T01:06:42.198Z,2.60
2023-03-28T01:09:09.340Z,2.20
2023-03-28T01:11:39.773Z,2.30
2023-03-28T01:14:09.234Z,2.20
2023-03-28T01:16:42.001Z,2.60
2023-03-28T01:19:26.716Z,3.00
2023-03-28T01:22:14.966Z,2.47
2023-03-28T01:25:06.874Z,2.17
2023-03-28T01:28:24.284Z,2.30
2023-03-28T01:31:00.034Z,2.40
2023-03-28T01:33:43.740Z,2.40
2023-03-28T01:36:47.101Z,2.30
2023-03-28T01:39:23.379Z,2.80
2023-03-28T01:41:56.420Z,2.50
2023-03-28T01:44:41.938Z,2.67
2023-03-28T01:47:30.333Z,2.50
2023-03-28T01:50:10.393Z,2.73
2023-03-28T01:52:57.706Z,2.90
2023-03-28T01:55:33.067Z,2.33
2023-03-28T01:58:23.553Z,2.67
2023-03-28T02:00:56.581Z,2.50
2023-03-28T02:03:37.834Z,2.37
2023-03-28T02:06:08.473Z,2.30
2023-03-28T02:08:42.223Z,2.30
2023-03-28T02:11:10.702Z,3.20
2023-03-28T02:13:45.110Z,2.60
2023-03-28T02:16:15.095Z,2.50
2023-03-28T02:18:47.775Z,2.50
2023-03-28T02:21:19.508Z,2.70
2023-03-28T02:23:52.323Z,2.53
2023-03-28T02:26:20.388Z,2.50
2023-03-28T02:28:50.759Z,2.90
2023-03-28T02:31:17.772Z,2.40
2023-03-28T02:33:49.649Z,2.40
2023-03-28T02:36:47.417Z,3.07
2023-03-28T02:39:43.674Z,2.70
2023-03-28T02:42:25.539Z,2.27
2023-03-28T02:45:22.873Z,2.70
2023-03-28T02:48:18.753Z,2.67
2023-03-28T02:50:58.753Z,2.87
2023-03-28T02:53:33.058Z,2.60
2023-03-28T02:56:09.253Z,2.37
2023-03-28T02:58:44.837Z,3.10
2023-03-28T03:01:14.742Z,3.07
2023-03-28T03:03:43.814Z,2.77
2023-03-28T03:06:13.036Z,3.00
2023-03-28T03:08:39.827Z,2.93
2023-03-28T03:11:06.840Z,2.63
2023-03-28T03:13:33.468Z,2.93
2023-03-28T03:16:00.392Z,2.70
2023-03-28T03:18:29.388Z,2.97
2023-03-28T03:20:56.090Z,3.10
2023-03-28T03:23:22.694Z,2.83
2023-03-28T03:25:50.767Z,3.10
2023-03-28T03:28:19.666Z,2.93
2023-03-28T03:30:48.666Z,3.13
2023-03-28T03:33:16.758Z,2.87
2023-03-28T03:35:46.039Z,2.80
2023-03-28T03:38:13.294Z,3.30
2023-03-28T03:40:40.732Z,3.10
2023-03-28T03:43:07.376Z,3.40
2023-03-28T03:45:33.972Z,3.20
2023-03-28T03:48:00.827Z,3.17
2023-03-28T03:50:29.999Z,2.77
2023-03-28T03:52:57.850Z,3.37
2023-03-28T03:55:26.675Z,2.63
2023-03-28T03:57:53.473Z,2.83
2023-03-28T04:00:22.699Z,3.13
2023-03-28T04:02:49.280Z,2.70
2023-03-28T04:05:16.365Z,2.83
2023-03-28T04:07:43.181Z,2.90
2023-03-28T04:13:52.984Z,2.90
2023-03-28T04:16:20.936Z,3.13
2023-03-28T04:18:52.936Z,2.80
2023-03-28T04:21:27.609Z,2.83
2023-03-28T04:23:55.363Z,3.10
2023-03-28T04:26:26.098Z,2.90
2023-03-28T04:28:53.345Z,2.63
2023-03-28T04:31:21.799Z,3.70
2023-03-28T04:33:49.242Z,2.97
2023-03-28T04:36:18.929Z,2.90
2023-03-28T04:38:48.282Z,3.27
2023-03-28T04:41:18.071Z,3.80
2023-03-28T04:43:47.737Z,3.33
2023-03-28T04:46:14.337Z,3.10
2023-03-28T04:48:41.009Z,3.30
2023-03-28T04:51:08.048Z,3.73
2023-03-28T04:53:34.738Z,3.60
2023-03-28T04:56:03.432Z,2.83
2023-03-28T04:58:32.526Z,3.97
2023-03-28T05:01:03.791Z,3.90
2023-03-28T05:03:30.640Z,3.20
2023-03-28T05:05:57.350Z,4.20
2023-03-28T05:08:27.824Z,4.13
2023-03-28T05:10:55.333Z,3.80
2023-03-28T05:13:25.518Z,4.17
2023-03-28T05:15:52.121Z,3.93
2023-03-28T05:18:21.805Z,4.57
2023-03-28T05:20:48.361Z,4.40
2023-03-28T05:23:15.031Z,4.97
2023-03-28T05:25:41.750Z,4.80
2023-03-28T05:28:08.365Z,4.77
2023-03-28T05:30:35.391Z,4.83
2023-03-28T05:33:02.038Z,5.07
2023-03-28T05:35:31.199Z,5.50
2023-03-28T05:38:03.020Z,5.57
2023-03-28T05:40:34.348Z,5.47
2023-03-28T05:43:01.035Z,5.37
2023-03-28T05:45:27.656Z,5.40
2023-03-28T05:47:55.678Z,5.07
2023-03-28T05:50:23.180Z,5.90
2023-03-28T05:52:49.811Z,5.43
2023-03-28T05:55:16.438Z,5.73
2023-03-28T05:57:47.498Z,6.20
2023-03-28T06:00:15.193Z,6.37
2023-03-28T06:02:43.298Z,6.00
2023-03-28T06:05:13.890Z,5.60
2023-03-28T06:07:42.905Z,5.60
2023-03-28T06:10:11.593Z,6.60
2023-03-28T06:12:38.236Z,6.37
2023-03-28T06:15:05.982Z,6.30
2023-03-28T06:17:32.722Z,6.23
2023-03-28T06:20:05.965Z,6.17
2023-03-28T06:22:32.973Z,6.03
2023-03-28T06:25:02.010Z,6.37
2023-03-28T06:27:28.649Z,6.00
2023-03-28T06:29:55.448Z,5.97
2023-03-28T06:32:22.439Z,6.50
2023-03-28T06:34:51.366Z,6.63
2023-03-28T06:37:18.071Z,6.03
2023-03-28T06:39:44.739Z,8.10
2023-03-28T06:42:11.493Z,7.17
2023-03-28T06:44:40.814Z,6.83
2023-03-28T06:47:09.928Z,6.93
2023-03-28T06:49:36.551Z,7.80
2023-03-28T06:52:03.420Z,6.83
2023-03-28T06:54:29.987Z,7.17
2023-03-28T06:56:56.564Z,7.50
2023-03-28T06:59:23.237Z,7.13
2023-03-28T07:01:49.916Z,6.93
2023-03-28T07:04:16.610Z,7.40
2023-03-28T07:06:43.210Z,7.10
2023-03-28T07:09:10.968Z,7.43
2023-03-28T07:11:37.854Z,7.63
2023-03-28T07:14:04.502Z,7.40
2023-03-28T07:16:31.252Z,7.23
2023-03-28T07:18:58.080Z,7.83
2023-03-28T07:21:26.946Z,7.73
2023-03-28T07:23:53.541Z,8.60
2023-03-28T07:26:22.427Z,9.50
2023-03-28T07:28:54.136Z,8.63
2023-03-28T07:31:21.397Z,8.23
2023-03-28T07:33:51.336Z,8.20
2023-03-28T07:36:23.160Z,8.37
2023-03-28T07:38:50.300Z,7.30
2023-03-28T07:41:17.468Z,8.23
2023-03-28T07:43:46.825Z,7.50
2023-03-28T07:46:15.258Z,8.10
2023-03-28T07:48:42.930Z,8.20
2023-03-28T07:51:10.808Z,8.17
2023-03-28T07:53:38.210Z,8.20
2023-03-28T07:56:12.474Z,7.20
2023-03-28T07:58:41.033Z,7.88
2023-03-28T08:01:11.082Z,7.35
2023-03-28T08:03:37.849Z,6.93
2023-03-28T08:06:13.775Z,6.30
2023-03-28T08:08:47.154Z,6.00
2023-03-28T08:11:13.841Z,5.85
2023-03-28T08:13:42.705Z,5.07
2023-03-28T08:16:09.991Z,4.40
2023-03-28T08:18:36.639Z,4.97
2023-03-28T08:21:03.801Z,4.75
2023-03-28T08:23:30.768Z,4.22
2023-03-28T08:26:06.314Z,3.92
2023-03-28T08:28:35.211Z,3.67
2023-03-28T08:31:02.726Z,3.05
2023-03-28T08:33:34.555Z,3.50
2023-03-28T08:36:01.226Z,3.53
2023-03-28T08:38:30.528Z,3.78
2023-03-28T08:41:09.154Z,2.80
2023-03-28T08:43:54.178Z,3.38
2023-03-28T08:46:26.591Z,3.63
2023-03-28T08:48:54.723Z,2.63
2023-03-28T08:51:26.764Z,2.75
2023-03-28T08:54:08.202Z,2.40
2023-03-28T08:56:45.769Z,3.08
2023-03-28T08:59:16.716Z,2.60
2023-03-28T09:01:47.232Z,2.22
2023-03-28T09:04:35.424Z,3.03
2023-03-28T09:07:26.578Z,4.50
2023-03-28T09:10:04.932Z,2.97
2023-03-28T09:12:31.509Z,2.42
2023-03-28T09:15:25.037Z,2.80
2023-03-28T09:18:22.609Z,2.13
2023-03-28T09:20:54.627Z,2.50
2023-03-28T09:23:29.934Z,3.55
2023-03-28T09:26:14.892Z,2.28
2023-03-28T09:29:00.350Z,2.33
2023-03-28T09:31:33.163Z,2.20
2023-03-28T09:34:00.717Z,2.63
2023-03-28T09:36:41.256Z,2.78
2023-03-28T09:39:26.064Z,1.58
2023-03-28T09:42:15.530Z,1.48
2023-03-28T09:44:54.245Z,1.65
2023-03-28T09:47:26.643Z,1.83
2023-03-28T09:50:02.185Z,2.28
2023-03-28T09:52:39.391Z,2.67
2023-03-28T09:55:20.199Z,2.25
2023-03-28T09:58:12.965Z,2.00
2023-03-28T10:00:49.273Z,2.53
2023-03-28T10:03:29.450Z,2.60
2023-03-28T10:05:59.887Z,2.35
2023-03-28T10:08:38.936Z,2.20
2023-03-28T10:11:19.561Z,1.90
2023-03-28T10:13:50.754Z,1.95
2023-03-28T10:16:32.402Z,1.75
2023-03-28T10:19:01.598Z,2.00
2023-03-28T10:21:34.151Z,2.80
2023-03-28T10:24:08.911Z,3.25
2023-03-28T10:26:40.741Z,3.90
2023-03-28T10:29:13.849Z,2.70
2023-03-28T10:31:47.986Z,2.13
2023-03-28T10:34:30.008Z,2.17
2023-03-28T10:36:56.752Z,2.85
2023-03-28T10:39:29.444Z,2.30
2023-03-28T10:42:01.133Z,1.80
2023-03-28T10:44:35.953Z,1.70
2023-03-28T10:47:12.117Z,1.65
2023-03-28T10:49:53.786Z,1.70
2023-03-28T10:52:48.661Z,1.25
2023-03-28T10:55:38.253Z,1.70
2023-03-28T10:58:22.087Z,1.10
2023-03-28T11:00:54.586Z,1.42
2023-03-28T11:03:21.995Z,1.60
2023-03-28T11:06:08.786Z,1.92
2023-03-28T11:09:06.735Z,1.33
2023-03-28T11:11:41.522Z,1.38
2023-03-28T11:14:26.969Z,1.80
2023-03-28T11:17:01.454Z,1.88
2023-03-28T11:19:42.988Z,1.50
2023-03-28T11:22:34.484Z,1.48
2023-03-28T11:25:21.882Z,1.60
2023-03-28T11:28:01.409Z,1.55
2023-03-28T11:30:33.186Z,1.40
2023-03-28T11:33:15.408Z,1.25
2023-03-28T11:35:53.409Z,1.50
2023-03-28T11:38:55.915Z,1.80
2023-03-28T11:41:29.455Z,1.33
2023-03-28T11:44:09.673Z,1.45
2023-03-28T11:46:42.732Z,2.10
2023-03-28T11:49:32.072Z,2.00
2023-03-28T11:52:01.531Z,2.08
2023-03-28T11:54:39.622Z,1.67
2023-03-28T11:57:29.067Z,2.08
2023-03-28T12:00:00.654Z,1.60
2023-03-28T12:02:27.313Z,1.95
2023-03-28T12:05:07.679Z,1.98
2023-03-28T12:07:48.351Z,1.70
2023-03-28T12:10:19.485Z,1.83
2023-03-28T12:13:21.240Z,2.22
2023-03-28T12:15:52.781Z,1.92
2023-03-28T12:18:33.652Z,1.90
2023-03-28T12:21:33.577Z,2.30
2023-03-28T12:24:11.355Z,1.80
2023-03-28T12:27:07.796Z,1.80
2023-03-28T12:30:06.876Z,2.15
2023-03-28T12:32:43.308Z,1.48
2023-03-28T12:35:51.187Z,2.00
2023-03-28T12:39:00.656Z,1.60
2023-03-28T12:41:31.910Z,1.88
2023-03-28T12:44:06.357Z,1.60
2023-03-28T12:46:53.259Z,1.63
2023-03-28T12:49:26.423Z,1.70
2023-03-28T12:51:56.753Z,1.83
2023-03-28T12:54:27.149Z,2.58
2023-03-28T12:57:07.246Z,3.03
2023-03-28T12:59:40.635Z,1.95
2023-03-28T13:02:15.813Z,1.90
2023-03-28T13:05:00.362Z,2.08
2023-03-28T13:07:37.380Z,1.92
2023-03-28T13:10:07.652Z,1.85
2023-03-28T13:12:37.206Z,1.88
2023-03-28T13:15:26.150Z,1.90
2023-03-28T13:18:17.992Z,1.70
2023-03-28T13:20:48.653Z,1.75
2023-03-28T13:23:17.740Z,1.67
2023-03-28T13:25:54.594Z,1.50
2023-03-28T13:28:29.815Z,1.90
2023-03-28T13:31:12.221Z,1.80
2023-03-28T13:34:01.734Z,1.98
2023-03-28T13:36:29.802Z,1.50
2023-03-28T13:39:18.863Z,1.65
2023-03-28T13:41:45.365Z,1.45
2023-03-28T13:44:16.331Z,1.70
2023-03-28T13:46:45.619Z,2.25
2023-03-28T13:49:12.314Z,2.17
2023-03-28T13:51:38.810Z,1.80
2023-03-28T13:54:05.735Z,1.90
2023-03-28T13:56:36.413Z,1.40
2023-03-28T13:59:14.455Z,1.75
2023-03-28T14:01:55.358Z,1.70
2023-03-28T14:04:25.317Z,1.20
2023-03-28T14:06:55.349Z,2.00
2023-03-28T14:09:33.968Z,1.65
2023-03-28T14:12:12.189Z,1.73
2023-03-28T14:14:44.394Z,1.70
2023-03-28T14:17:15.352Z,2.00
2023-03-28T14:19:51.179Z,2.05
2023-03-28T14:22:21.240Z,1.80
2023-03-28T14:24:51.727Z,2.15
2023-03-28T14:27:45.448Z,2.05
2023-03-28T14:30:25.087Z,1.90
2023-03-28T14:32:59.240Z,2.10
2023-03-28T14:35:38.810Z,1.67
2023-03-28T14:38:11.395Z,1.65
2023-03-28T14:40:42.227Z,1.67
2023-03-28T14:43:16.161Z,1.65
2023-03-28T14:45:48.888Z,2.17
2023-03-28T14:48:19.750Z,1.77
2023-03-28T14:50:49.211Z,1.60
2023-03-28T14:53:21.405Z,1.85
2023-03-28T14:55:54.527Z,2.17
2023-03-28T14:58:22.768Z,2.03
2023-03-28T15:00:54.398Z,1.70
2023-03-28T15:03:43.152Z,1.70
2023-03-28T15:06:18.644Z,1.40
2023-03-28T15:08:45.917Z,1.60
2023-03-28T15:11:20.561Z,1.58
2023-03-28T15:13:50.426Z,1.67
2023-03-28T15:16:21.384Z,1.50
2023-03-28T15:18:57.375Z,1.60
2023-03-28T15:21:24.528Z,1.58
2023-03-28T15:23:59.527Z,1.63
2023-03-28T15:26:55.328Z,1.50
2023-03-28T15:29:25.116Z,1.48
2023-03-28T15:32:04.555Z,2.08
2023-03-28T15:34:33.944Z,1.42
2023-03-28T15:37:02.953Z,1.88
2023-03-28T15:39:34.915Z,1.73
2023-03-28T15:42:21.433Z,1.50
2023-03-28T15:44:57.148Z,1.40
2023-03-28T15:47:35.570Z,1.48
2023-03-28T15:50:24.433Z,1.90
2023-03-28T15:53:00.186Z,1.67
2023-03-28T15:55:33.020Z,1.48
2023-03-28T15:58:00.038Z,2.35
2023-03-28T16:00:58.704Z,1.80
2023-03-28T16:03:25.255Z,1.73
2023-03-28T16:06:10.259Z,1.60
2023-03-28T16:08:48.442Z,1.50
2023-03-28T16:11:21.744Z,1.77
2023-03-28T16:13:48.344Z,1.60
2023-03-28T16:16:24.676Z,1.83
2023-03-28T16:18:54.501Z,3.03
2023-03-28T16:21:21.232Z,1.55
2023-03-28T16:23:48.153Z,1.63
2023-03-28T16:26:17.152Z,1.80
2023-03-28T16:28:43.704Z,1.65
2023-03-28T16:31:15.055Z,1.88
2023-03-28T16:33:49.378Z,1.35
2023-03-28T16:36:16.292Z,1.73
2023-03-28T16:38:42.948Z,1.90
2023-03-28T16:41:12.501Z,2.25
2023-03-28T16:43:40.229Z,2.20
2023-03-28T16:46:12.365Z,2.40
2023-03-28T16:48:41.860Z,2.25
2023-03-28T16:51:08.689Z,2.10
2023-03-28T16:53:36.928Z,2.35
2023-03-28T16:56:05.161Z,2.85
2023-03-28T16:58:31.761Z,2.65
2023-03-28T17:01:07.101Z,2.47
2023-03-28T17:03:34.133Z,2.85
2023-03-28T17:06:05.893Z,2.38
2023-03-28T17:08:32.438Z,3.00
2023-03-28T17:11:00.298Z,2.63
2023-03-28T17:13:28.078Z,2.60
2023-03-28T17:15:56.368Z,1.73
2023-03-28T17:18:27.679Z,1.58
2023-03-28T17:21:03.467Z,2.97
2023-03-28T17:23:33.290Z,1.30
2023-03-28T17:26:00.740Z,1.33
2023-03-28T17:28:29.229Z,1.48
2023-03-28T17:30:58.557Z,1.52
2023-03-28T17:33:25.758Z,1.83
2023-03-28T17:35:52.408Z,1.58
2023-03-28T17:38:18.984Z,1.60
2023-03-28T17:40:47.267Z,1.80
2023-03-28T17:43:13.919Z,1.67
2023-03-28T17:45:40.509Z,1.50
2023-03-28T17:48:07.831Z,2.03
2023-03-28T17:50:34.389Z,2.00
2023-03-28T17:53:03.224Z,1.75
2023-03-28T17:55:30.053Z,1.70
2023-03-28T17:57:56.775Z,1.88
2023-03-28T18:00:23.361Z,1.83
2023-03-28T18:02:53.125Z,1.50
2023-03-28T18:05:22.322Z,1.73
2023-03-28T18:07:52.032Z,1.70
2023-03-28T18:10:23.660Z,1.90
2023-03-28T18:12:51.541Z,1.58
2023-03-28T18:15:18.211Z,1.77
2023-03-28T18:17:45.360Z,2.35
2023-03-28T18:20:12.741Z,2.20
2023-03-28T18:22:39.584Z,2.58
2023-03-28T18:25:06.811Z,2.33
2023-03-28T18:27:33.461Z,2.40
2023-03-28T18:30:06.513Z,2.63
2023-03-28T18:32:35.353Z,2.40
2023-03-28T18:35:02.290Z,2.13
2023-03-28T18:37:32.796Z,1.80
2023-03-28T18:40:00.282Z,2.25
2023-03-28T18:42:27.230Z,1.80
2023-03-28T18:44:53.851Z,2.30
2023-03-28T18:47:20.489Z,2.15
2023-03-28T18:49:47.031Z,1.85
2023-03-28T18:52:19.430Z,1.67
2023-03-28T18:54:46.762Z,2.30
2023-03-28T18:57:16.078Z,2.40
2023-03-28T18:59:42.691Z,2.25
2023-03-28T19:02:13.771Z,2.63
2023-03-28T19:04:42.694Z,2.55
2023-03-28T19:07:10.042Z,2.30
2023-03-28T19:09:36.890Z,2.35
2023-03-28T19:12:03.989Z,2.40
2023-03-28T19:14:33.166Z,2.30
2023-03-28T19:17:02.534Z,2.50
2023-03-28T19:19:29.237Z,2.50
2023-03-28T19:21:56.133Z,1.88
2023-03-28T19:24:23.475Z,1.90
2023-03-28T19:26:50.328Z,1.90
2023-03-28T19:29:17.258Z,2.05
2023-03-28T19:31:43.969Z,3.00
2023-03-28T19:34:19.632Z,2.80
2023-03-28T19:36:46.369Z,2.75
2023-03-28T19:39:13.471Z,2.40
2023-03-28T19:41:40.575Z,2.10
2023-03-28T19:44:09.495Z,2.40
2023-03-28T19:46:38.782Z,2.75
2023-03-28T19:49:11.423Z,1.90
2023-03-28T19:51:40.377Z,2.25
2023-03-28T19:54:07.170Z,1.88
2023-03-28T19:56:34.019Z,2.35
2023-03-28T19:59:00.648Z,2.22
2023-03-28T20:01:27.570Z,1.83
2023-03-28T20:03:54.222Z,1.88
2023-03-28T20:06:24.576Z,2.63
2023-03-28T20:08:53.604Z,2.50
2023-03-28T20:11:20.560Z,2.25
2023-03-28T20:13:47.218Z,2.45
2023-03-28T20:16:14.683Z,2.05
2023-03-28T20:18:41.871Z,2.20
2023-03-28T20:21:11.762Z,2.17
2023-03-28T20:23:41.205Z,1.85
2023-03-28T20:26:15.475Z,1.83
2023-03-28T20:28:42.240Z,1.88
2023-03-28T20:31:12.839Z,1.90
2023-03-28T20:33:40.826Z,1.65
2023-03-28T20:36:07.995Z,1.83
2023-03-28T20:38:34.712Z,1.75
2023-03-28T20:41:01.924Z,2.15
2023-03-28T20:43:29.589Z,1.98
2023-03-28T20:46:01.636Z,1.85
2023-03-28T20:48:36.030Z,1.90
2023-03-28T20:51:14.344Z,1.98
2023-03-28T20:53:44.885Z,1.50
2023-03-28T20:56:13.571Z,1.60
2023-03-28T20:58:44.174Z,1.55
2023-03-28T21:01:17.670Z,1.60
2023-03-28T21:03:51.106Z,1.60
2023-03-28T21:06:21.427Z,1.50
2023-03-28T21:08:50.266Z,1.80
2023-03-28T21:11:26.389Z,1.70
2023-03-28T21:13:53.647Z,1.73
2023-03-28T21:16:21.590Z,2.40
2023-03-28T21:18:48.797Z,1.77
2023-03-28T21:21:17.578Z,1.58
2023-03-28T21:23:47.734Z,1.90
2023-03-28T21:26:17.389Z,1.95
2023-03-28T21:28:45.031Z,1.52
2023-03-28T21:31:15.489Z,1.80
2023-03-28T21:33:45.776Z,1.70
2023-03-28T21:36:17.177Z,1.63
2023-03-28T21:38:44.836Z,1.45
2023-03-28T21:41:14.447Z,1.80
2023-03-28T21:43:44.502Z,2.00
2023-03-28T21:46:12.757Z,1.60
2023-03-28T21:48:44.788Z,1.58
2023-03-28T21:51:15.559Z,1.55
2023-03-28T21:53:42.415Z,1.67
2023-03-28T21:56:11.579Z,1.80
2023-03-28T21:58:38.373Z,2.33
2023-03-28T22:01:08.298Z,1.67
2023-03-28T22:03:38.430Z,1.80
2023-03-28T22:06:07.860Z,1.60
2023-03-28T22:08:34.463Z,1.48
2023-03-28T22:11:05.088Z,1.77
2023-03-28T22:13:32.022Z,1.67
2023-03-28T22:16:02.531Z,1.80
2023-03-28T22:18:30.785Z,1.63
2023-03-28T22:21:02.624Z,1.98
2023-03-28T22:23:30.138Z,1.50
2023-03-28T22:25:58.533Z,1.92
2023-03-28T22:28:27.339Z,1.88
2023-03-28T22:30:55.194Z,1.85
2023-03-28T22:33:25.470Z,1.60
2023-03-28T22:35:53.100Z,1.98
2023-03-28T22:38:19.974Z,2.17
2023-03-28T22:40:47.613Z,1.95
2023-03-28T22:43:15.004Z,1.95
2023-03-28T22:45:41.835Z,1.83
2023-03-28T22:48:20.346Z,1.98
2023-03-28T22:50:47.376Z,2.40
2023-03-28T22:53:15.380Z,1.70
2023-03-28T22:55:44.608Z,2.20
2023-03-28T22:58:11.974Z,1.80
2023-03-28T23:00:39.253Z,1.83
2023-03-28T23:03:07.998Z,1.95
2023-03-28T23:05:37.932Z,1.98
2023-03-28T23:08:05.608Z,1.88
2023-03-28T23:10:32.335Z,1.83
2023-03-28T23:12:59.561Z,1.95
2023-03-28T23:15:26.897Z,2.00
2023-03-28T23:17:53.644Z,2.20
2023-03-28T23:20:26.595Z,2.47
2023-03-28T23:22:55.559Z,2.35
2023-03-28T23:25:22.440Z,2.35
2023-03-28T23:27:49.082Z,1.90
2023-03-28T23:30:16.643Z,1.73
2023-03-28T23:32:45.796Z,1.90
2023-03-28T23:35:12.332Z,1.95
2023-03-28T23:37:41.741Z,2.88
2023-03-28T23:40:15.068Z,2.00
2023-03-28T23:42:47.004Z,1.92
2023-03-28T23:45:15.152Z,2.28
2023-03-28T23:47:43.446Z,2.00
2023-03-28T23:50:13.829Z,1.77
2023-03-28T23:52:42.801Z,2.20
2023-03-28T23:55:09.933Z,2.10
2023-03-28T23:57:36.959Z,2.20
